Latest Weather Observations for Little Bay

IDN60901

Issued at 10:41 am EDT Thursday 9 February 2023 (issued every 10 minutes, with the page automatically refreshed every 10 minutes)

About weather observations | Map of Sydney area stations | Latest observations for Sydney area | Other Formats
Station Details ID: 066051 Name: LITTLE BAY (THE COAST GOLF CLUB) Lat: -33.98 Lon: 151.25 Height: 22.0 m
Data from the previous 72 hours. | See also: Recent months at Little Bay
Date/Time
EDT
Temp
°C
App
Temp
°C
Dew
Point
°C
Rel
Hum
%
Delta-T
°C
Wind Press
QNH
hPa
Press
MSL
hPa
Rain since
9am
mm
Dir  Spd
km/h
Gust
km/h
Spd
kts
Gust
kts
09/10:30am - - - - - ENE 24 39 13 21 - - -
09/10:00am - - - - - ENE 24 33 13 18 - - -
09/09:30am - - - - - ENE 33 41 18 22 - - -
09/09:00am - - - - - ENE 28 35 15 19 - - -
09/08:30am - - - - - ENE 26 33 14 18 - - -
09/08:00am - - - - - E 26 32 14 17 - - -
09/07:30am - - - - - ENE 17 24 9 13 - - -
09/07:00am - - - - - NE 20 28 11 15 - - -
09/06:30am - - - - - NE 24 32 13 17 - - -
09/06:00am - - - - - E 26 33 14 18 - - -
09/05:30am - - - - - ENE 11 20 6 11 - - -
09/05:00am - - - - - ENE 13 24 7 13 - - -
09/04:30am - - - - - NNE 15 30 8 16 - - -
09/04:00am - - - - - NE 20 32 11 17 - - -
09/03:30am - - - - - NE 19 28 10 15 - - -
09/03:00am - - - - - NE 22 32 12 17 - - -
09/02:30am - - - - - N 20 35 11 19 - - -
09/02:00am - - - - - ENE 22 32 12 17 - - -
09/01:30am - - - - - ENE 22 32 12 17 - - -
09/01:00am - - - - - ENE 24 32 13 17 - - -
09/12:30am - - - - - ENE 20 32 11 17 - - -
09/12:00am - - - - - ENE 22 30 12 16 - - -
 
Date/Time
EDT
Temp
°C
App
Temp
°C
Dew
Point
°C
Rel
Hum
%
Delta-T
°C
Wind Press
QNH
hPa
Press
MSL
hPa
Rain since
9am
mm
Dir  Spd
km/h
Gust
km/h
Spd
kts
Gust
kts
08/11:30pm - - - - - ENE 22 35 12 19 - - -
08/11:00pm - - - - - ENE 22 30 12 16 - - -
08/10:30pm - - - - - ENE 22 32 12 17 - - -
08/10:00pm - - - - - ENE 22 30 12 16 - - -
08/09:30pm - - - - - ENE 24 33 13 18 - - -
08/09:00pm - - - - - E 28 33 15 18 - - -
08/08:30pm - - - - - ENE 26 32 14 17 - - -
08/08:00pm - - - - - E 26 33 14 18 - - -
08/07:30pm - - - - - ENE 24 33 13 18 - - -
08/07:00pm - - - - - E 22 30 12 16 - - -
08/06:30pm - - - - - E 22 32 12 17 - - -
08/06:00pm - - - - - E 22 28 12 15 - - -
08/05:30pm - - - - - ESE 20 28 11 15 - - -
08/05:00pm - - - - - ESE 19 24 10 13 - - -
08/04:30pm - - - - - ESE 20 26 11 14 - - -
08/04:00pm - - - - - ESE 22 30 12 16 - - -
08/03:30pm - - - - - ESE 19 26 10 14 - - -
08/03:00pm - - - - - ESE 26 32 14 17 - - -
08/02:30pm - - - - - ESE 26 33 14 18 - - -
08/02:00pm - - - - - SE 24 30 13 16 - - -
08/01:30pm - - - - - SE 20 30 11 16 - - -
08/01:00pm - - - - - SSE 15 19 8 10 - - -
08/12:30pm - - - - - SSE 15 20 8 11 - - -
08/12:00pm - - - - - S 13 19 7 10 - - -
08/11:30am - - - - - S 13 17 7 9 - - -
08/11:00am - - - - - S 20 26 11 14 - - -
08/10:30am - - - - - SSE 9 15 5 8 - - -
08/10:00am - - - - - ENE 6 7 3 4 - - -
08/09:30am - - - - - ENE 7 9 4 5 - - -
08/09:00am - - - - - NE 7 9 4 5 - - -
08/08:30am - - - - - NE 7 11 4 6 - - -
08/08:00am - - - - - NNE 7 9 4 5 - - -
08/07:30am - - - - - NNE 6 9 3 5 - - -
08/07:00am - - - - - N 4 6 2 3 - - -
08/06:30am - - - - - NNE 6 9 3 5 - - -
08/06:00am - - - - - NNE 7 9 4 5 - - -
08/05:30am - - - - - NNE 9 15 5 8 - - -
08/05:00am - - - - - NNE 9 13 5 7 - - -
08/04:30am - - - - - NNE 9 15 5 8 - - -
08/04:00am - - - - - NE 13 17 7 9 - - -
08/03:30am - - - - - NE 13 19 7 10 - - -
08/03:00am - - - - - NE 11 17 6 9 - - -
08/02:30am - - - - - NNE 11 15 6 8 - - -
08/02:00am - - - - - NE 13 17 7 9 - - -
08/01:30am - - - - - NE 15 20 8 11 - - -
08/01:00am - - - - - NE 15 20 8 11 - - -
08/12:30am - - - - - NE 13 20 7 11 - - -
08/12:00am - - - - - NE 13 20 7 11 - - -
 
Date/Time
EDT
Temp
°C
App
Temp
°C
Dew
Point
°C
Rel
Hum
%
Delta-T
°C
Wind Press
QNH
hPa
Press
MSL
hPa
Rain since
9am
mm
Dir  Spd
km/h
Gust
km/h
Spd
kts
Gust
kts
07/11:30pm - - - - - NE 13 19 7 10 - - -
07/11:00pm - - - - - ENE 15 20 8 11 - - -
07/10:30pm - - - - - ENE 15 22 8 12 - - -
07/10:00pm - - - - - ENE 13 20 7 11 - - -
07/09:30pm - - - - - ENE 15 20 8 11 - - -
07/09:00pm - - - - - ENE 13 19 7 10 - - -
07/08:30pm - - - - - NE 13 19 7 10 - - -
07/08:00pm - - - - - ENE 15 20 8 11 - - -
07/07:30pm - - - - - E 15 20 8 11 - - -
07/07:00pm - - - - - E 15 19 8 10 - - -
07/06:30pm - - - - - E 13 17 7 9 - - -
07/06:00pm - - - - - E 13 19 7 10 - - -
07/05:30pm - - - - - E 15 19 8 10 - - -
07/05:00pm - - - - - E 15 19 8 10 - - -
07/04:30pm - - - - - ENE 15 17 8 9 - - -
07/04:00pm - - - - - ENE 13 17 7 9 - - -
07/03:30pm - - - - - ENE 13 17 7 9 - - -
07/03:00pm - - - - - ENE 11 15 6 8 - - -
07/02:30pm - - - - - ENE 11 15 6 8 - - -
07/02:00pm - - - - - ESE 11 17 6 9 - - -
07/01:30pm - - - - - E 9 11 5 6 - - -
07/01:00pm - - - - - SE 9 15 5 8 - - -
07/12:30pm - - - - - ESE 9 15 5 8 - - -
07/12:00pm - - - - - ENE 9 13 5 7 - - -
07/11:30am - - - - - E 7 11 4 6 - - -
07/11:00am - - - - - ENE 7 9 4 5 - - -
07/10:30am - - - - - NE 9 13 5 7 - - -
07/10:00am - - - - - NE 9 11 5 6 - - -
07/09:30am - - - - - NE 9 13 5 7 - - -
07/09:00am - - - - - ENE 6 7 3 4 - - -
07/08:30am - - - - - NE 7 11 4 6 - - -
07/08:00am - - - - - NE 6 9 3 5 - - -
07/07:30am - - - - - CALM 0 0 0 0 - - -
07/07:00am - - - - - CALM 0 2 0 1 - - -
07/06:30am - - - - - N 4 4 2 2 - - -
07/06:00am - - - - - CALM 0 0 0 0 - - -
07/05:30am - - - - - NNE 2 4 1 2 - - -
07/05:00am - - - - - N 4 6 2 3 - - -
07/04:30am - - - - - NNE 11 17 6 9 - - -
07/04:00am - - - - - NE 11 17 6 9 - - -
07/03:30am - - - - - NE 11 15 6 8 - - -
07/03:00am - - - - - NE 9 13 5 7 - - -
07/02:30am - - - - - NE 11 13 6 7 - - -
07/02:00am - - - - - NE 9 15 5 8 - - -
07/01:30am - - - - - NE 11 17 6 9 - - -
07/01:00am - - - - - NE 13 20 7 11 - - -
07/12:30am - - - - - NE 13 19 7 10 - - -
07/12:00am - - - - - NE 13 19 7 10 - - -
 
Date/Time
EDT
Temp
°C
App
Temp
°C
Dew
Point
°C
Rel
Hum
%
Delta-T
°C
Wind Press
QNH
hPa
Press
MSL
hPa
Rain since
9am
mm
Dir  Spd
km/h
Gust
km/h
Spd
kts
Gust
kts
06/11:30pm - - - - - NE 17 24 9 13 - - -
06/11:00pm - - - - - NNE 19 24 10 13 - - -
06/10:30pm - - - - - NE 20 30 11 16 - - -
06/10:00pm - - - - - NNE 24 35 13 19 - - -
06/09:30pm - - - - - NNE 24 33 13 18 - - -
06/09:00pm - - - - - NNE 24 35 13 19 - - -
06/08:30pm - - - - - NE 26 33 14 18 - - -
06/08:00pm - - - - - NE 24 35 13 19 - - -
06/07:30pm - - - - - NE 26 35 14 19 - - -
06/07:00pm - - - - - NE 28 37 15 20 - - -
06/06:30pm - - - - - NE 30 39 16 21 - - -
06/06:00pm - - - - - NE 30 39 16 21 - - -
06/05:30pm - - - - - NE 30 41 16 22 - - -
06/05:00pm - - - - - NE 28 37 15 20 - - -
06/04:30pm - - - - - NE 26 39 14 21 - - -
06/04:00pm - - - - - NE 26 33 14 18 - - -
06/03:30pm - - - - - NE 22 35 12 19 - - -
06/03:00pm - - - - - NE 22 32 12 17 - - -
06/02:30pm - - - - - NE 22 30 12 16 - - -
06/02:00pm - - - - - NE 22 30 12 16 - - -
06/01:30pm - - - - - NE 20 30 11 16 - - -
06/01:00pm - - - - - NE 20 28 11 15 - - -
06/12:30pm - - - - - NE 20 28 11 15 - - -
06/12:00pm - - - - - NE 24 32 13 17 - - -
06/11:30am - - - - - NE 20 28 11 15 - - -
06/11:00am - - - - - NE 22 28 12 15 - - -

Latest Capital City Observations: Canberra | Sydney | Melbourne | Brisbane | Adelaide | Perth | Hobart | Darwin

Other formats

Comma delimited format used in spreadsheet applications
http://www.bom.gov.au/fwo/IDN60901/IDN60901.94780.axf

JavaScript Object Notation format (JSON) in row-major order
http://www.bom.gov.au/fwo/IDN60901/IDN60901.94780.json

Data quality

Most of these data are generated automatically and are frequently updated. Quality checks on data are not normally performed. It is possible for incorrect values to appear. Refer to information at About Latest Weather Observations and please check the disclaimer before using these data.